createdAt,value
2022-10-14T00:02:10.882Z,12.32
2022-10-14T00:04:56.453Z,12.38
2022-10-14T00:07:41.414Z,12.27
2022-10-14T00:10:26.778Z,12.27
2022-10-14T00:13:11.732Z,12.23
2022-10-14T00:15:56.956Z,12.22
2022-10-14T00:18:42.370Z,12.24
2022-10-14T00:21:28.672Z,12.25
2022-10-14T00:24:14.960Z,12.18
2022-10-14T00:26:59.881Z,12.17
2022-10-14T00:29:44.764Z,12.19
2022-10-14T00:32:30.339Z,12.22
2022-10-14T00:35:15.644Z,12.18
2022-10-14T00:38:00.763Z,12.16
2022-10-14T00:40:45.731Z,12.20
2022-10-14T00:43:56.191Z,12.23
2022-10-14T00:46:49.653Z,12.28
2022-10-14T00:49:39.268Z,12.35
2022-10-14T00:52:24.982Z,12.43
2022-10-14T00:55:18.615Z,12.55
2022-10-14T00:58:03.792Z,12.43
2022-10-14T01:00:48.979Z,12.22
2022-10-14T01:03:34.942Z,12.19
2022-10-14T01:06:45.099Z,12.17
2022-10-14T01:09:36.062Z,12.14
2022-10-14T01:12:33.377Z,12.09
2022-10-14T01:15:33.969Z,12.09
2022-10-14T01:18:19.229Z,12.06
2022-10-14T01:21:17.585Z,12.04
2022-10-14T01:24:40.101Z,12.06
2022-10-14T01:27:32.780Z,12.06
2022-10-14T01:30:25.235Z,12.08
2022-10-14T01:33:20.239Z,12.06
2022-10-14T01:36:13.618Z,12.09
2022-10-14T01:39:07.265Z,12.10
2022-10-14T01:42:17.084Z,12.08
2022-10-14T01:45:12.285Z,12.07
2022-10-14T01:48:00.174Z,12.05
2022-10-14T01:50:48.019Z,12.00
2022-10-14T01:53:38.458Z,12.07
2022-10-14T01:56:24.492Z,12.13
2022-10-14T01:59:12.413Z,12.10
2022-10-14T02:01:57.489Z,12.02
2022-10-14T02:04:42.779Z,12.04
2022-10-14T02:07:42.308Z,12.01
2022-10-14T02:10:50.941Z,11.95
2022-10-14T02:13:53.688Z,11.91
2022-10-14T02:16:48.033Z,11.87
2022-10-14T02:19:57.686Z,11.88
2022-10-14T02:22:48.201Z,11.82
2022-10-14T02:25:39.265Z,11.82
2022-10-14T02:28:27.514Z,11.82
2022-10-14T02:31:16.764Z,11.79
2022-10-14T02:34:07.152Z,11.78
2022-10-14T02:36:54.453Z,11.79
2022-10-14T02:39:44.132Z,11.81
2022-10-14T02:42:29.403Z,11.91
2022-10-14T02:45:14.565Z,11.82
2022-10-14T02:47:59.498Z,11.83
2022-10-14T02:50:44.470Z,11.89
2022-10-14T02:53:29.556Z,11.82
2022-10-14T02:56:14.645Z,11.81
2022-10-14T02:58:59.713Z,11.75
2022-10-14T03:01:44.719Z,11.78
2022-10-14T03:04:29.623Z,11.78
2022-10-14T03:07:14.628Z,11.80
2022-10-14T03:09:59.531Z,11.81
2022-10-14T03:12:45.105Z,11.93
2022-10-14T03:15:30.376Z,11.95
2022-10-14T03:18:15.891Z,11.99
2022-10-14T03:21:01.060Z,12.16
2022-10-14T03:23:46.452Z,12.22
2022-10-14T03:26:31.466Z,12.11
2022-10-14T03:29:16.564Z,12.17
2022-10-14T03:32:03.019Z,12.19
2022-10-14T03:34:47.967Z,12.19
2022-10-14T03:37:32.806Z,12.29
2022-10-14T03:40:17.804Z,12.34
2022-10-14T03:43:02.686Z,12.41
2022-10-14T03:45:47.760Z,12.35
2022-10-14T03:48:33.207Z,12.36
2022-10-14T03:51:18.265Z,12.41
2022-10-14T03:54:03.203Z,12.49
2022-10-14T03:56:48.604Z,12.47
2022-10-14T03:59:33.657Z,12.57
2022-10-14T04:02:18.793Z,12.55
2022-10-14T04:05:04.340Z,12.51
2022-10-14T04:07:49.544Z,12.27
2022-10-14T04:10:34.433Z,12.16
2022-10-14T04:13:20.105Z,12.08
2022-10-14T04:16:06.710Z,12.02
2022-10-14T04:18:51.585Z,11.98
2022-10-14T04:21:36.535Z,12.01
2022-10-14T04:24:21.482Z,12.05
2022-10-14T04:27:06.378Z,12.06
2022-10-14T04:29:52.298Z,12.14
2022-10-14T04:32:37.572Z,12.00
2022-10-14T04:35:22.772Z,11.96
2022-10-14T04:38:08.058Z,12.06
2022-10-14T04:40:53.299Z,12.13
2022-10-14T04:43:38.812Z,12.18
2022-10-14T04:46:23.839Z,12.21
2022-10-14T04:49:09.660Z,12.26
2022-10-14T04:51:54.759Z,12.27
2022-10-14T04:54:39.838Z,12.40
2022-10-14T04:57:24.869Z,12.44
2022-10-14T05:00:12.031Z,12.37
2022-10-14T05:02:57.198Z,12.33
2022-10-14T05:05:42.222Z,12.31
2022-10-14T05:08:27.073Z,12.22
2022-10-14T05:11:12.121Z,12.24
2022-10-14T05:13:57.398Z,12.25
2022-10-14T05:16:42.701Z,12.34
2022-10-14T05:19:28.120Z,12.26
2022-10-14T05:22:13.071Z,12.31
2022-10-14T05:25:00.098Z,12.35
2022-10-14T05:27:45.262Z,12.38
2022-10-14T05:30:34.520Z,12.41
2022-10-14T05:33:20.156Z,12.38
2022-10-14T05:36:05.627Z,12.36
2022-10-14T05:38:50.968Z,12.40
2022-10-14T05:41:35.736Z,12.37
2022-10-14T05:44:21.126Z,12.38
2022-10-14T05:47:06.089Z,12.38
2022-10-14T05:49:51.354Z,12.43
2022-10-14T05:52:36.514Z,12.50
2022-10-14T05:55:21.665Z,12.53
2022-10-14T05:58:07.736Z,12.44
2022-10-14T06:00:55.832Z,12.41
2022-10-14T06:03:41.318Z,12.45
2022-10-14T06:06:29.074Z,12.47
2022-10-14T06:09:14.572Z,12.47
2022-10-14T06:11:59.633Z,12.47
2022-10-14T06:14:45.326Z,12.50
2022-10-14T06:17:30.317Z,12.52
2022-10-14T06:20:15.423Z,12.51
2022-10-14T06:23:01.733Z,12.52
2022-10-14T06:25:47.142Z,12.55
2022-10-14T06:28:32.993Z,12.47
2022-10-14T06:31:18.149Z,12.48
2022-10-14T06:34:05.937Z,12.47
2022-10-14T06:36:51.120Z,12.39
2022-10-14T06:39:36.243Z,12.46
2022-10-14T06:42:21.246Z,12.48
2022-10-14T06:45:07.049Z,12.51
2022-10-14T06:47:52.359Z,12.48
2022-10-14T06:50:37.459Z,12.40
2022-10-14T06:53:22.984Z,12.37
2022-10-14T06:56:09.261Z,12.46
2022-10-14T06:58:55.263Z,12.43
2022-10-14T07:01:40.460Z,12.39
2022-10-14T07:04:25.689Z,12.42
2022-10-14T07:07:11.000Z,12.41
2022-10-14T07:09:56.082Z,12.41
2022-10-14T07:12:41.390Z,12.53
2022-10-14T07:15:26.909Z,12.46
2022-10-14T07:18:12.232Z,12.43
2022-10-14T07:21:01.851Z,12.50
2022-10-14T07:23:47.479Z,12.62
2022-10-14T07:26:33.181Z,12.66
2022-10-14T07:29:18.383Z,12.68
2022-10-14T07:32:03.936Z,12.67
2022-10-14T07:34:49.358Z,12.53
2022-10-14T07:37:34.918Z,12.57
2022-10-14T07:40:20.560Z,12.60
2022-10-14T07:43:05.767Z,12.82
2022-10-14T07:45:51.403Z,12.80
2022-10-14T07:48:52.537Z,12.96
2022-10-14T07:51:42.387Z,13.02
2022-10-14T07:54:27.869Z,12.95
2022-10-14T07:57:12.963Z,12.84
2022-10-14T07:59:58.608Z,12.98
2022-10-14T08:02:43.996Z,12.95
2022-10-14T08:05:44.355Z,13.04
2022-10-14T08:08:30.239Z,13.01
2022-10-14T08:11:19.810Z,13.18
2022-10-14T08:14:05.990Z,13.08
2022-10-14T08:16:51.148Z,13.17
2022-10-14T08:19:36.588Z,13.14
2022-10-14T08:22:21.993Z,13.20
2022-10-14T08:25:08.116Z,13.24
2022-10-14T08:27:54.524Z,13.20
2022-10-14T08:30:43.062Z,13.16
2022-10-14T08:33:28.365Z,13.06
2022-10-14T08:36:13.603Z,13.11
2022-10-14T08:38:59.493Z,13.28
2022-10-14T08:42:23.396Z,13.32
2022-10-14T08:45:15.014Z,13.44
2022-10-14T08:48:02.855Z,13.39
2022-10-14T08:50:55.945Z,13.45
2022-10-14T08:53:48.363Z,13.60
2022-10-14T08:56:36.601Z,13.55
2022-10-14T08:59:25.134Z,13.60
2022-10-14T09:02:30.789Z,13.67
2022-10-14T09:05:24.634Z,13.72
2022-10-14T09:08:15.615Z,13.68
2022-10-14T09:11:01.249Z,13.77
2022-10-14T09:14:01.051Z,13.77
2022-10-14T09:16:51.864Z,13.71
2022-10-14T09:19:50.374Z,13.81
2022-10-14T09:22:35.903Z,13.85
2022-10-14T09:25:21.348Z,13.79
2022-10-14T09:28:06.315Z,13.99
2022-10-14T09:30:54.357Z,14.16
2022-10-14T09:33:42.431Z,14.44
2022-10-14T09:36:28.062Z,14.27
2022-10-14T09:39:14.157Z,14.46
2022-10-14T09:42:00.515Z,14.57
2022-10-14T09:48:00.648Z,14.62
2022-10-14T09:50:55.399Z,14.62
2022-10-14T09:53:45.430Z,14.67
2022-10-14T09:56:40.726Z,14.66
2022-10-14T09:59:28.425Z,14.64
2022-10-14T10:02:37.227Z,14.71
2022-10-14T10:05:32.558Z,14.82
2022-10-14T10:08:18.858Z,14.75
2022-10-14T10:11:11.436Z,14.86
2022-10-14T10:13:58.109Z,14.81
2022-10-14T10:16:43.803Z,14.79
2022-10-14T10:19:33.539Z,14.95
2022-10-14T10:22:21.857Z,15.28
2022-10-14T10:25:10.209Z,15.42
2022-10-14T10:27:59.800Z,15.74
2022-10-14T10:31:12.066Z,15.99
2022-10-14T10:34:10.297Z,15.93
2022-10-14T10:37:16.887Z,16.00
2022-10-14T10:40:08.023Z,16.11
2022-10-14T10:43:10.677Z,16.05
2022-10-14T10:46:30.894Z,15.63
2022-10-14T10:49:23.479Z,15.42
2022-10-14T10:52:43.180Z,15.45
2022-10-14T10:55:51.674Z,15.52
2022-10-14T10:59:00.116Z,15.47
2022-10-14T11:02:13.242Z,15.52
2022-10-14T11:05:46.560Z,15.91
2022-10-14T11:08:55.449Z,16.04
2022-10-14T11:12:15.415Z,16.25
2022-10-14T11:15:33.512Z,16.26
2022-10-14T11:18:34.043Z,16.74
2022-10-14T11:21:37.434Z,16.51
2022-10-14T11:24:36.846Z,16.32
2022-10-14T11:27:41.303Z,16.03
2022-10-14T11:30:48.294Z,15.97
2022-10-14T11:33:57.155Z,15.99
2022-10-14T11:37:12.970Z,16.06
2022-10-14T11:40:06.591Z,16.08
2022-10-14T11:43:12.285Z,16.06
2022-10-14T11:46:10.802Z,16.08
2022-10-14T11:49:12.957Z,16.12
2022-10-14T11:52:08.970Z,16.22
2022-10-14T11:55:01.730Z,16.29
2022-10-14T11:57:59.091Z,16.40
2022-10-14T12:00:49.329Z,16.31
2022-10-14T12:04:10.640Z,16.21
2022-10-14T12:07:15.461Z,16.24
2022-10-14T12:10:06.676Z,16.11
2022-10-14T12:12:54.536Z,16.08
2022-10-14T12:15:42.869Z,16.14
2022-10-14T12:18:30.989Z,16.23
2022-10-14T12:21:28.242Z,16.30
2022-10-14T12:24:20.564Z,16.32
2022-10-14T12:27:09.798Z,16.33
2022-10-14T12:29:55.655Z,16.46
2022-10-14T12:33:00.703Z,16.73
2022-10-14T12:35:56.813Z,16.83
2022-10-14T12:38:42.280Z,16.83
2022-10-14T12:41:40.281Z,16.50
2022-10-14T12:44:35.314Z,16.53
2022-10-14T12:47:27.186Z,16.56
2022-10-14T12:50:15.200Z,16.62
2022-10-14T12:53:02.971Z,16.57
2022-10-14T12:55:53.519Z,16.62
2022-10-14T12:58:42.631Z,16.70
2022-10-14T13:01:31.094Z,16.74
2022-10-14T13:04:20.253Z,16.74
2022-10-14T13:07:39.039Z,16.71
2022-10-14T13:10:47.734Z,16.55
2022-10-14T13:13:38.951Z,16.50
2022-10-14T13:16:23.730Z,16.51
2022-10-14T13:19:34.738Z,16.59
2022-10-14T13:22:33.156Z,16.54
2022-10-14T13:25:20.735Z,16.43
2022-10-14T13:28:31.964Z,16.29
2022-10-14T13:31:38.401Z,16.18
2022-10-14T13:34:34.715Z,16.16
2022-10-14T13:37:32.063Z,16.20
2022-10-14T13:40:24.308Z,16.21
2022-10-14T13:43:19.980Z,16.29
2022-10-14T13:46:34.640Z,16.31
2022-10-14T13:49:37.535Z,16.28
2022-10-14T13:52:26.492Z,16.33
2022-10-14T13:55:21.026Z,16.37
2022-10-14T13:58:17.988Z,16.33
2022-10-14T14:01:05.604Z,16.32
2022-10-14T14:03:53.630Z,16.34
2022-10-14T14:07:02.993Z,16.25
2022-10-14T14:09:52.300Z,16.23
2022-10-14T14:12:42.297Z,16.25
2022-10-14T14:15:29.362Z,16.26
2022-10-14T14:18:43.174Z,16.26
2022-10-14T14:21:38.477Z,16.17
2022-10-14T14:24:25.193Z,16.24
2022-10-14T14:27:22.399Z,16.32
2022-10-14T14:30:23.270Z,16.28
2022-10-14T14:33:13.622Z,16.28
2022-10-14T14:36:01.712Z,16.31
2022-10-14T14:39:03.294Z,16.18
2022-10-14T14:41:53.244Z,16.16
2022-10-14T14:44:39.542Z,16.14
2022-10-14T14:47:27.343Z,16.08
2022-10-14T14:50:31.941Z,15.97
2022-10-14T14:53:24.204Z,15.89
2022-10-14T14:56:16.242Z,15.78
2022-10-14T14:59:21.236Z,15.64
2022-10-14T15:02:18.420Z,15.45
2022-10-14T15:05:09.330Z,15.34
2022-10-14T15:07:54.428Z,15.27
2022-10-14T15:10:47.344Z,15.20
2022-10-14T15:13:38.721Z,15.15
2022-10-14T15:16:51.951Z,14.96
2022-10-14T15:19:38.642Z,14.80
2022-10-14T15:22:30.293Z,14.72
2022-10-14T15:25:32.156Z,14.73
2022-10-14T15:28:31.658Z,14.65
2022-10-14T15:31:16.951Z,14.64
2022-10-14T15:34:03.826Z,14.64
2022-10-14T15:36:51.191Z,14.63
2022-10-14T15:39:36.510Z,14.66
2022-10-14T15:42:21.896Z,14.69
2022-10-14T15:45:07.850Z,14.61
2022-10-14T15:50:44.727Z,14.60
2022-10-14T15:53:29.809Z,14.60
2022-10-14T15:56:15.253Z,14.58
2022-10-14T15:59:00.860Z,14.51
2022-10-14T16:01:47.326Z,14.48
2022-10-14T16:04:32.635Z,14.41
2022-10-14T16:07:17.871Z,14.35
2022-10-14T16:10:03.581Z,14.32
2022-10-14T16:12:49.440Z,14.28
2022-10-14T16:15:43.514Z,14.21
2022-10-14T16:18:28.194Z,14.14
2022-10-14T16:21:15.929Z,14.10
2022-10-14T16:24:02.219Z,14.04
2022-10-14T16:26:48.459Z,14.01
2022-10-14T16:29:33.413Z,14.06
2022-10-14T16:32:18.806Z,14.11
2022-10-14T16:35:05.917Z,14.07
2022-10-14T16:37:51.090Z,14.06
2022-10-14T16:40:36.969Z,14.06
2022-10-14T16:43:22.263Z,14.04
2022-10-14T16:46:10.434Z,14.12
2022-10-14T16:48:58.176Z,14.14
2022-10-14T16:51:44.823Z,14.10
2022-10-14T16:54:30.183Z,14.08
2022-10-14T16:57:15.659Z,14.12
2022-10-14T17:00:01.075Z,14.14
2022-10-14T17:02:46.399Z,14.06
2022-10-14T17:05:32.100Z,14.03
2022-10-14T17:08:18.417Z,14.04
2022-10-14T17:11:03.453Z,14.00
2022-10-14T17:13:53.109Z,14.01
2022-10-14T17:16:38.043Z,13.99
2022-10-14T17:19:22.963Z,13.97
2022-10-14T17:22:08.706Z,13.96
2022-10-14T17:24:53.807Z,13.94
2022-10-14T17:27:38.730Z,13.89
2022-10-14T17:30:24.179Z,13.88
2022-10-14T17:33:09.551Z,13.90
2022-10-14T17:35:58.091Z,13.95
2022-10-14T17:38:43.108Z,13.94
2022-10-14T17:41:33.822Z,13.92
2022-10-14T17:44:19.484Z,13.91
2022-10-14T17:47:05.183Z,13.89
2022-10-14T17:49:50.186Z,13.87
2022-10-14T17:52:35.224Z,13.89
2022-10-14T17:55:20.533Z,13.90
2022-10-14T17:58:08.473Z,13.90
2022-10-14T18:00:53.580Z,13.94
2022-10-14T18:03:41.761Z,14.02
2022-10-14T18:06:32.433Z,13.99
2022-10-14T18:09:18.674Z,13.95
2022-10-14T18:12:08.740Z,13.93
2022-10-14T18:14:55.188Z,13.93
2022-10-14T18:17:44.204Z,13.96
2022-10-14T18:20:29.141Z,13.93
2022-10-14T18:23:14.803Z,13.95
2022-10-14T18:26:06.272Z,13.93
2022-10-14T18:28:56.412Z,13.97
2022-10-14T18:31:41.920Z,14.00
2022-10-14T18:34:27.301Z,13.97
2022-10-14T18:37:12.686Z,14.05
2022-10-14T18:39:57.866Z,14.02
2022-10-14T18:42:43.188Z,14.05
2022-10-14T18:45:28.170Z,14.03
2022-10-14T18:48:13.496Z,14.04
2022-10-14T18:51:00.007Z,14.03
2022-10-14T18:53:47.876Z,14.07
2022-10-14T18:56:35.678Z,14.04
2022-10-14T18:59:22.978Z,14.01
2022-10-14T19:02:12.556Z,14.00
2022-10-14T19:04:57.505Z,13.99
2022-10-14T19:07:42.915Z,14.00
2022-10-14T19:10:28.119Z,14.03
2022-10-14T19:13:13.254Z,14.01
2022-10-14T19:16:06.529Z,14.05
2022-10-14T19:18:56.509Z,14.08
2022-10-14T19:21:42.276Z,14.04
2022-10-14T19:24:27.263Z,13.94
2022-10-14T19:27:12.165Z,13.94
2022-10-14T19:29:57.621Z,13.92
2022-10-14T19:32:42.647Z,13.96
2022-10-14T19:35:27.634Z,13.99
2022-10-14T19:38:13.567Z,14.01
2022-10-14T19:41:03.936Z,14.03
2022-10-14T19:43:49.190Z,14.03
2022-10-14T19:46:34.669Z,13.99
2022-10-14T19:49:20.120Z,14.02
2022-10-14T19:52:05.828Z,14.00
2022-10-14T19:54:51.347Z,13.98
2022-10-14T19:57:36.614Z,13.93
2022-10-14T20:00:22.430Z,13.88
2022-10-14T20:03:08.021Z,13.89
2022-10-14T20:06:00.106Z,13.86
2022-10-14T20:08:45.142Z,13.84
2022-10-14T20:11:30.517Z,13.80
2022-10-14T20:14:15.901Z,13.77
2022-10-14T20:17:00.856Z,13.78
2022-10-14T20:19:45.938Z,13.72
2022-10-14T20:22:34.049Z,13.68
2022-10-14T20:25:18.908Z,13.74
2022-10-14T20:28:04.292Z,13.80
2022-10-14T20:30:49.632Z,13.70
2022-10-14T20:33:34.941Z,13.71
2022-10-14T20:36:21.907Z,13.70
2022-10-14T20:39:10.190Z,13.64
2022-10-14T20:41:55.144Z,13.68
2022-10-14T20:44:40.619Z,13.68
2022-10-14T20:47:25.790Z,13.70
2022-10-14T20:50:11.128Z,13.66
2022-10-14T20:52:56.372Z,13.60
2022-10-14T20:55:41.226Z,13.63
2022-10-14T20:58:26.653Z,13.63
2022-10-14T21:01:16.212Z,13.67
2022-10-14T21:04:04.303Z,13.73
2022-10-14T21:06:49.211Z,13.75
2022-10-14T21:09:34.141Z,13.51
2022-10-14T21:12:19.606Z,13.48
2022-10-14T21:15:05.281Z,13.38
2022-10-14T21:17:50.654Z,13.36
2022-10-14T21:20:35.604Z,13.35
2022-10-14T21:23:20.951Z,13.51
2022-10-14T21:26:06.077Z,13.64
2022-10-14T21:28:51.635Z,13.62
2022-10-14T21:31:36.733Z,13.61
2022-10-14T21:34:21.932Z,13.66
2022-10-14T21:37:07.117Z,13.65
2022-10-14T21:39:52.035Z,13.50
2022-10-14T21:42:37.301Z,13.43
2022-10-14T21:45:22.665Z,13.57
2022-10-14T21:48:07.741Z,13.57
2022-10-14T21:51:03.556Z,13.72
2022-10-14T21:53:48.552Z,13.55
2022-10-14T21:56:33.530Z,13.60
2022-10-14T21:59:18.482Z,13.77
2022-10-14T22:02:09.290Z,13.59
2022-10-14T22:04:54.429Z,13.58
2022-10-14T22:07:39.530Z,13.46
2022-10-14T22:10:24.529Z,13.47
2022-10-14T22:13:09.543Z,13.60
2022-10-14T22:15:54.942Z,13.39
2022-10-14T22:18:40.428Z,13.31
2022-10-14T22:21:27.312Z,13.28
2022-10-14T22:24:13.396Z,13.25
2022-10-14T22:26:58.507Z,13.22
2022-10-14T22:29:43.527Z,13.31
2022-10-14T22:32:28.743Z,13.37
2022-10-14T22:35:13.698Z,13.44
2022-10-14T22:37:58.742Z,13.55
2022-10-14T22:40:43.539Z,13.59
2022-10-14T22:43:28.539Z,13.48
2022-10-14T22:46:15.152Z,13.29
2022-10-14T22:49:00.626Z,13.18
2022-10-14T22:51:45.911Z,13.14
2022-10-14T22:54:31.096Z,13.24
2022-10-14T22:57:16.045Z,13.33
2022-10-14T23:00:03.834Z,13.30
2022-10-14T23:02:50.106Z,13.17
2022-10-14T23:05:35.321Z,13.13
2022-10-14T23:08:20.060Z,13.08
2022-10-14T23:11:06.565Z,13.09
2022-10-14T23:13:51.963Z,13.23
2022-10-14T23:16:38.970Z,13.09
2022-10-14T23:19:24.015Z,13.22
2022-10-14T23:22:09.451Z,13.26
2022-10-14T23:24:54.282Z,13.09
2022-10-14T23:27:39.723Z,12.99
2022-10-14T23:30:25.225Z,12.93
2022-10-14T23:33:10.559Z,12.72
2022-10-14T23:35:55.484Z,12.75
2022-10-14T23:38:40.886Z,12.78
2022-10-14T23:41:25.895Z,12.85
2022-10-14T23:44:11.450Z,12.83
2022-10-14T23:46:56.861Z,12.76
2022-10-14T23:49:41.920Z,12.63
2022-10-14T23:52:26.941Z,12.60
2022-10-14T23:55:12.652Z,12.63
2022-10-14T23:57:57.822Z,12.75
